首页
METAR-TAF:

METAR-TAF

机场 :

Muir Army Airfield

Fort Indiantown Gap, 宾夕法尼亚州, 美国

纬度: 40-26N, 经度: 076-34W, 海拔: 149米

当前天气观测

该预报发布于18分钟前的02:56 UTC
风速11节,风向西转西北,有时为19节阵风
温度 -1°C
湿度 50%
气压 1033 hPa
能見度: 16.1公里
散云层高于4000英尺
多云层高于5000英尺
(小) 未知

METAR: KMUI 120256Z AUTO 30011G19KT 10SM -UP SCT040 BKN050 M01/M10 A3049 RMK AO2 UPB52 SLP334 P0000 60000 T10061105

时间: 22:14 (03:14 UTC)

预报

该预报发布于8小时和14分钟前的19:00 UTC
预报有效从11日的 19点(UTC)到 13日的 01点(UTC)
风速10节,风向西转西南,有时为15节阵风
能见度10公里或以上
天空无云
短暂存在
从 12日的 00点(UTC)到 12日的 03点(UTC)
风速15节,风向西,有时为25节阵风
成为
从 12日的 07点(UTC)到 12日的 08点(UTC)
风速6节,风向西北
能见度10公里或以上
天空无云
成为
从 12日的 19点(UTC)到 12日的 20点(UTC)
风速6节,风向南转南东
能見度: 1211
少量云层高于21000英尺

TAF: KMUI 111900Z 1119/1301 24010G15KT 9999 SKC QNH3027INS TEMPO 1200/1203 28015G25KT BECMG 1207/1208 31006KT 9999 SKC QNH3055INS BECMG 1219/1220 16006KT 9999 FEW210 QNH3055INS TX03/1119Z TNM03/1210Z LAST NO AMDS AFT 1205 NEXT 1211

超过4000个机场的气象观测和天气预报(METAR&TAF报告)。

可查询的气象台以黄色和红色小点在地图上表示。

将鼠标移到小点上方,可查看气象台名称。

然后点击查看天气观测和预报。

如需切换地图:点击带黑十字的绿色按钮放大地图;点击带横线的绿色按钮缩小地图;或者点击绿色箭头查看邻近地区的地图。


METAR-TAF: